Terminal Aerodrome Forecast
Issued by NWS

Home | Current Version | Previous Version | Text Only | Print | Product List | Glossary On
Versions: 1 2 3 4 5 6 7 8 9 10 11 12 13 14 15 16 17 18
000
FTUS43 KDVN 271735
TAFBRL
TAF
KBRL 271735Z 2718/2818 14006KT P6SM SCT035 SCT120
     FM272100 17004KT P6SM BKN035 BKN120
     FM280100 VRB03KT P6SM SCT035 BKN120
     FM280500 19003KT P6SM VCSH SCT035 BKN100
      TEMPO 2806/2809 4SM -SHRA BR
     FM280900 23003KT 6SM BR SCT035 SCT100
     FM281100 28003KT 5SM BR FEW035 BKN100
     FM281400 34004KT 6SM BR SCT035 BKN100=

USA.gov is the U.S. government's official web portal to all federal, state and local government web resources and services.